Time;durP1;ratioP1;P1;durP2;ratioP2;P2;SDS_P1;SDS_P2;PMS_P1;PMS_P2;Temp;Humidity;BMP_temperature;BMP_pressure;BME280_temperature;BME280_humidity;BME280_pressure;Samples;Min_cycle;Max_cycle;Signal;HPM_P1;HPM_P2
2021/07/20 00:00:12;;;;;;;0.60;0.60;;;;;;;16.20;100.00;100559.16;5036521;28;20483;-81
2021/07/20 00:02:45;;;;;;;2.93;1.43;;;;;;;16.53;100.00;100553.97;5021995;28;20482;-81
2021/07/20 00:05:15;;;;;;;5.70;3.17;;;;;;;16.65;100.00;100543.59;5025476;28;20448;-81
2021/07/20 00:07:42;;;;;;;0.40;0.20;;;;;;;16.62;100.00;100563.41;5066518;28;20492;-79
2021/07/20 00:10:15;;;;;;;1.43;1.33;;;;;;;16.34;100.00;100554.97;5024997;28;20484;-78
2021/07/20 00:12:42;;;;;;;0.40;0.20;;;;;;;16.37;100.00;100554.81;5066758;28;20510;-79
2021/07/20 00:15:11;;;;;;;0.40;0.30;;;;;;;16.30;100.00;100555.06;5037414;28;20855;-79
2021/07/20 00:17:42;;;;;;;0.40;0.20;;;;;;;16.22;100.00;100561.78;5029368;28;20440;-79
2021/07/20 00:20:13;;;;;;;9.13;2.43;;;;;;;16.20;100.00;100551.13;5024993;28;20503;-79
2021/07/20 00:22:40;;;;;;;0.73;0.73;;;;;;;16.01;100.00;100552.91;5033843;28;20480;-78
2021/07/20 00:25:08;;;;;;;0.90;0.60;;;;;;;16.02;100.00;100561.81;5058682;28;20451;-78
2021/07/20 00:27:35;;;;;;;2.53;2.33;;;;;;;15.94;100.00;100564.88;5033781;28;20485;-79
2021/07/20 00:30:04;;;;;;;0.53;0.47;;;;;;;16.05;100.00;100554.53;5058473;28;20490;-78
2021/07/20 00:32:31;;;;;;;0.40;0.30;;;;;;;16.14;100.00;100551.41;5023628;28;20497;-79
2021/07/20 00:34:57;;;;;;;0.83;0.83;;;;;;;16.00;100.00;100553.84;5052466;28;20510;-78
2021/07/20 00:37:24;;;;;;;6.97;1.93;;;;;;;15.66;100.00;100552.75;5021713;28;20498;-79
2021/07/20 00:39:50;;;;;;;0.40;0.20;;;;;;;15.52;100.00;100557.81;5026479;28;20457;-78
2021/07/20 00:42:17;;;;;;;0.40;0.30;;;;;;;15.51;100.00;100545.34;5065143;28;20485;-79
2021/07/20 00:44:44;;;;;;;0.40;0.27;;;;;;;15.74;100.00;100540.78;5026796;28;20456;-78
2021/07/20 00:47:10;;;;;;;0.40;0.20;;;;;;;15.71;100.00;100552.53;5030133;28;20492;-78
2021/07/20 00:49:38;;;;;;;1.30;1.23;;;;;;;15.79;100.00;100546.81;5025800;28;20484;-78
2021/07/20 00:52:04;;;;;;;2.13;2.13;;;;;;;15.82;100.00;100542.19;5029365;28;20950;-79
2021/07/20 00:54:31;;;;;;;0.40;0.20;;;;;;;15.95;100.00;100554.06;5058731;28;20452;-79
2021/07/20 00:56:58;;;;;;;0.50;0.40;;;;;;;15.82;100.00;100550.22;5022096;28;20447;-78
2021/07/20 00:59:25;;;;;;;0.40;0.30;;;;;;;15.89;100.00;100537.38;5036876;28;21055;-78
2021/07/20 01:01:51;;;;;;;0.60;0.60;;;;;;;15.90;100.00;100542.72;5022528;28;20467;-79
2021/07/20 01:04:18;;;;;;;0.50;0.50;;;;;;;15.85;100.00;100546.53;5024773;28;20792;-78
2021/07/20 01:06:48;;;;;;;0.50;0.50;;;;;;;15.80;100.00;100546.75;5066071;28;20488;-79
2021/07/20 01:09:15;;;;;;;0.90;0.90;;;;;;;15.64;100.00;100551.94;5024055;28;20510;-78
2021/07/20 01:11:42;;;;;;;0.40;0.20;;;;;;;15.64;100.00;100557.31;5053300;28;20457;-78
2021/07/20 01:14:10;;;;;;;8.40;1.53;;;;;;;15.59;100.00;100545.91;5025447;28;20926;-78
2021/07/20 01:16:38;;;;;;;2.83;1.37;;;;;;;15.46;100.00;100547.34;5041225;28;20449;-79
2021/07/20 01:19:07;;;;;;;0.40;0.30;;;;;;;15.67;100.00;100551.78;5030252;28;20953;-79
2021/07/20 01:21:37;;;;;;;0.40;0.40;;;;;;;15.52;100.00;100552.47;5056764;28;20454;-78
2021/07/20 01:24:13;;;;;;;0.40;0.20;;;;;;;15.46;100.00;100543.81;5024011;28;20465;-79
2021/07/20 01:26:40;;;;;;;0.73;0.73;;;;;;;15.42;100.00;100548.44;5055555;28;20451;-78
2021/07/20 01:29:10;;;;;;;0.87;0.87;;;;;;;15.93;100.00;100552.41;5026669;28;20988;-81
2021/07/20 01:31:40;;;;;;;0.40;0.20;;;;;;;15.49;100.00;100552.59;5029147;28;21028;-81
2021/07/20 01:34:10;;;;;;;0.40;0.20;;;;;;;15.52;100.00;100555.13;5032553;28;20476;-81
2021/07/20 01:36:38;;;;;;;0.40;0.20;;;;;;;15.57;100.00;100560.28;5052140;28;20456;-81
2021/07/20 01:39:08;;;;;;;2.23;1.47;;;;;;;15.48;100.00;100558.88;5033771;28;20460;-81
2021/07/20 01:41:36;;;;;;;1.00;1.00;;;;;;;15.20;100.00;100550.31;5033102;28;20507;-81
2021/07/20 01:44:10;;;;;;;0.40;0.30;;;;;;;15.18;100.00;100549.50;5025783;28;20521;-81
2021/07/20 01:46:39;;;;;;;0.40;0.27;;;;;;;15.07;100.00;100549.97;5025590;28;20522;-81
2021/07/20 01:49:10;;;;;;;0.40;0.40;;;;;;;15.26;100.00;100552.72;5032328;28;20547;-81
2021/07/20 01:51:38;;;;;;;1.20;1.20;;;;;;;15.10;100.00;100550.72;5065422;28;20505;-81
2021/07/20 01:54:07;;;;;;;0.40;0.30;;;;;;;14.98;100.00;100553.91;5061562;28;20486;-80
2021/07/20 01:56:34;;;;;;;0.97;0.90;;;;;;;15.25;100.00;100549.19;5038530;28;20444;-81
2021/07/20 01:59:01;;;;;;;1.43;1.33;;;;;;;15.00;100.00;100548.50;5062559;28;20519;-81
2021/07/20 02:01:33;;;;;;;0.40;0.20;;;;;;;15.10;100.00;100553.41;5065209;28;20518;-81
2021/07/20 02:04:24;;;;;;;1.70;1.63;;;;;;;14.96;100.00;100550.44;5062415;28;20463;-81
2021/07/20 02:09:38;;;;;;;0.40;0.20;;;;;;;14.89;100.00;100540.91;5034235;28;20548;-81
2021/07/20 02:12:16;;;;;;;0.60;0.60;;;;;;;14.87;100.00;100542.78;5030071;28;20455;-81
2021/07/20 02:14:45;;;;;;;0.40;0.30;;;;;;;15.03;100.00;100556.41;5031925;28;20446;-81
2021/07/20 02:17:13;;;;;;;0.70;0.70;;;;;;;14.91;100.00;100559.59;5033922;28;20448;-81
2021/07/20 02:19:53;;;;;;;0.80;0.40;;;;;;;14.77;100.00;100546.78;5032761;28;20473;-80
2021/07/20 02:22:23;;;;;;;0.40;0.20;;;;;;;14.62;100.00;100558.13;5063946;28;20456;-81
2021/07/20 02:24:54;;;;;;;0.40;0.20;;;;;;;14.56;100.00;100558.38;5029074;28;20456;-81
2021/07/20 02:27:23;;;;;;;0.40;0.30;;;;;;;14.56;100.00;100563.72;5036716;28;20495;-81
2021/07/20 02:29:54;;;;;;;0.40;0.40;;;;;;;14.59;100.00;100560.94;5028115;28;20476;-80
2021/07/20 02:32:23;;;;;;;0.40;0.20;;;;;;;14.61;100.00;100545.69;5031871;28;20479;-81
2021/07/20 02:34:50;;;;;;;1.07;1.03;;;;;;;14.64;100.00;100537.53;5038873;28;20513;-81
2021/07/20 02:37:17;;;;;;;0.40;0.30;;;;;;;14.54;100.00;100529.03;5025994;28;20444;-81
2021/07/20 02:39:45;;;;;;;0.40;0.30;;;;;;;14.64;100.00;100543.75;5039640;28;20471;-81
2021/07/20 02:42:12;;;;;;;0.87;0.87;;;;;;;14.32;100.00;100546.81;5026035;28;20455;-81
2021/07/20 02:44:40;;;;;;;0.40;0.20;;;;;;;13.98;100.00;100550.84;5039180;28;20817;-80
2021/07/20 02:47:06;;;;;;;0.50;0.50;;;;;;;14.19;100.00;100546.44;5033718;28;20488;-81
2021/07/20 02:49:37;;;;;;;0.43;0.33;;;;;;;14.47;100.00;100546.25;5032472;28;20478;-81
2021/07/20 02:52:05;;;;;;;4.30;0.93;;;;;;;14.37;100.00;100544.81;5025467;28;20503;-81
2021/07/20 02:54:33;;;;;;;0.40;0.23;;;;;;;14.38;100.00;100542.09;5032973;28;20456;-81
2021/07/20 02:57:00;;;;;;;0.50;0.40;;;;;;;14.41;100.00;100543.78;5026575;28;20439;-81
2021/07/20 02:59:28;;;;;;;0.40;0.20;;;;;;;14.62;100.00;100537.59;5055175;28;20475;-81
2021/07/20 03:01:58;;;;;;;0.50;0.40;;;;;;;14.48;100.00;100540.81;5026318;28;20494;-81
2021/07/20 03:04:25;;;;;;;0.57;0.57;;;;;;;14.46;100.00;100540.03;5053907;28;20873;-81
2021/07/20 03:06:59;;;;;;;0.40;0.20;;;;;;;14.33;100.00;100536.06;5020265;28;20457;-81
2021/07/20 03:09:29;;;;;;;0.40;0.20;;;;;;;14.34;100.00;100540.47;5031243;28;20532;-81
2021/07/20 03:12:05;;;;;;;2.03;1.17;;;;;;;14.41;100.00;100541.13;5028418;28;20513;-81
2021/07/20 03:14:33;;;;;;;0.40;0.20;;;;;;;14.42;100.00;100534.84;5028674;28;20442;-81
2021/07/20 03:17:01;;;;;;;0.40;0.20;;;;;;;14.26;100.00;100526.56;5036338;28;20445;-81
2021/07/20 03:19:30;;;;;;;1.53;0.93;;;;;;;14.26;100.00;100534.59;5032207;28;20487;-81
2021/07/20 03:22:03;;;;;;;0.97;0.97;;;;;;;14.36;100.00;100527.03;5060805;28;20513;-81
2021/07/20 03:24:32;;;;;;;0.87;0.87;;;;;;;14.40;100.00;100534.03;5022773;28;20451;-81
2021/07/20 03:27:00;;;;;;;0.40;0.20;;;;;;;14.33;100.00;100532.53;5024258;28;20448;-81
2021/07/20 03:29:27;;;;;;;1.23;1.23;;;;;;;14.34;100.00;100528.91;5068631;28;20525;-81
2021/07/20 03:31:55;;;;;;;1.53;1.43;;;;;;;14.22;100.00;100538.28;5052721;28;20452;-81
2021/07/20 03:34:23;;;;;;;0.50;0.50;;;;;;;14.29;100.00;100529.09;5018416;28;20457;-80
2021/07/20 03:36:50;;;;;;;1.30;1.30;;;;;;;14.15;100.00;100531.47;5060344;28;20938;-80
2021/07/20 03:39:18;;;;;;;0.43;0.37;;;;;;;13.98;100.00;100534.78;5022185;28;20470;-80
2021/07/20 03:41:47;;;;;;;0.70;0.70;;;;;;;13.99;100.00;100535.66;5032864;28;20456;-80
2021/07/20 03:44:15;;;;;;;0.83;0.83;;;;;;;14.00;100.00;100546.28;5057568;28;20428;-80
2021/07/20 03:46:42;;;;;;;0.40;0.30;;;;;;;14.01;100.00;100541.81;5052516;28;20493;-80
2021/07/20 03:49:11;;;;;;;1.70;1.67;;;;;;;13.98;100.00;100547.25;5030739;28;20842;-80
2021/07/20 03:51:40;;;;;;;1.23;1.23;;;;;;;14.00;100.00;100540.94;5033309;28;20490;-80
2021/07/20 03:54:08;;;;;;;2.67;1.17;;;;;;;14.33;100.00;100538.75;5022863;28;20494;-80
2021/07/20 03:56:38;;;;;;;1.23;1.23;;;;;;;14.04;100.00;100539.03;5066468;28;20518;-81
2021/07/20 03:59:08;;;;;;;0.40;0.30;;;;;;;13.99;100.00;100546.34;5026054;28;20808;-81
2021/07/20 04:01:39;;;;;;;12.37;3.33;;;;;;;13.98;100.00;100544.59;5031385;28;20480;-81
2021/07/20 04:04:13;;;;;;;0.40;0.20;;;;;;;14.02;100.00;100551.56;5024545;28;20455;-81
2021/07/20 04:06:41;;;;;;;0.80;0.80;;;;;;;14.07;100.00;100550.47;5048922;28;20452;-80
2021/07/20 04:09:11;;;;;;;1.13;1.03;;;;;;;13.94;100.00;100552.72;5021903;28;20542;-80
2021/07/20 04:11:39;;;;;;;0.40;0.20;;;;;;;13.96;100.00;100536.63;5025759;28;20460;-77
2021/07/20 04:14:06;;;;;;;0.67;0.60;;;;;;;13.89;100.00;100544.03;5026855;28;20460;-77
2021/07/20 04:16:35;;;;;;;0.73;0.73;;;;;;;13.81;100.00;100540.75;5037496;28;20453;-79
2021/07/20 04:19:03;;;;;;;1.33;1.33;;;;;;;13.87;100.00;100539.69;5059404;28;20482;-79
2021/07/20 04:21:30;;;;;;;0.40;0.30;;;;;;;14.08;100.00;100544.19;5031997;28;20452;-80
2021/07/20 04:23:56;;;;;;;0.50;0.40;;;;;;;14.13;100.00;100549.38;5019227;28;20479;-81
2021/07/20 04:26:24;;;;;;;3.03;1.13;;;;;;;14.14;100.00;100556.44;5023979;28;20445;-80
2021/07/20 04:28:51;;;;;;;0.93;0.93;;;;;;;14.24;100.00;100545.31;5027645;28;20546;-80
2021/07/20 04:31:23;;;;;;;0.40;0.30;;;;;;;14.22;100.00;100547.19;5056967;28;20538;-79
2021/07/20 04:33:50;;;;;;;0.40;0.20;;;;;;;14.21;100.00;100541.91;5026816;28;20455;-80
2021/07/20 04:36:20;;;;;;;2.53;2.43;;;;;;;14.28;100.00;100555.91;5023532;28;20451;-80
2021/07/20 04:38:47;;;;;;;2.70;2.60;;;;;;;14.28;100.00;100550.56;5045881;28;20437;-80
2021/07/20 04:41:18;;;;;;;0.77;0.77;;;;;;;14.57;100.00;100552.09;5055429;28;20483;-79
2021/07/20 04:43:46;;;;;;;0.40;0.30;;;;;;;14.55;100.00;100562.00;5019178;28;20964;-80
2021/07/20 04:46:15;;;;;;;4.53;2.83;;;;;;;14.77;100.00;100554.81;5032421;28;20446;-80
2021/07/20 04:48:42;;;;;;;0.87;0.87;;;;;;;15.09;100.00;100567.72;5027150;28;20496;-80
2021/07/20 04:51:11;;;;;;;2.10;2.10;;;;;;;15.54;100.00;100568.47;5023914;28;20475;-80
2021/07/20 04:53:40;;;;;;;2.60;2.40;;;;;;;15.87;100.00;100566.09;5065304;28;20460;-80
2021/07/20 04:56:07;;;;;;;0.40;0.30;;;;;;;16.22;100.00;100565.31;5020237;28;20824;-81
2021/07/20 04:58:34;;;;;;;0.70;0.70;;;;;;;16.32;100.00;100570.25;5032436;28;20454;-81
2021/07/20 05:01:03;;;;;;;2.03;0.77;;;;;;;16.71;99.91;100575.50;5026279;28;20532;-82
2021/07/20 05:03:32;;;;;;;4.30;3.13;;;;;;;16.34;100.00;100558.50;5032063;28;20452;-81
2021/07/20 05:06:00;;;;;;;0.97;0.87;;;;;;;16.54;100.00;100570.94;5017876;28;20442;-80
2021/07/20 05:08:28;;;;;;;0.40;0.20;;;;;;;16.68;100.00;100565.81;5030676;28;20550;-81
2021/07/20 05:10:55;;;;;;;4.23;1.90;;;;;;;16.79;100.00;100579.56;5031987;28;20542;-81
2021/07/20 05:13:24;;;;;;;0.40;0.23;;;;;;;17.03;99.14;100568.56;5030118;28;20515;-81
2021/07/20 05:16:00;;;;;;;0.90;0.60;;;;;;;17.25;99.33;100579.06;5077794;28;20443;-81
2021/07/20 05:18:27;;;;;;;0.40;0.20;;;;;;;16.83;100.00;100573.09;5026486;28;20538;-81
2021/07/20 05:20:57;;;;;;;2.03;1.63;;;;;;;16.91;100.00;100578.09;5023293;28;20542;-81
2021/07/20 05:23:24;;;;;;;0.40;0.30;;;;;;;17.02;100.00;100578.44;5027310;28;20499;-82
2021/07/20 05:25:55;;;;;;;0.40;0.20;;;;;;;17.05;100.00;100574.72;5032284;28;20457;-81
2021/07/20 05:28:26;;;;;;;0.40;0.30;;;;;;;17.27;100.00;100564.63;5061420;28;20565;-81
2021/07/20 05:30:58;;;;;;;0.50;0.40;;;;;;;17.63;99.52;100579.75;5023853;28;20467;-81
2021/07/20 05:33:25;;;;;;;0.50;0.50;;;;;;;18.00;97.50;100582.25;5025321;28;20507;-80
2021/07/20 05:35:56;;;;;;;0.50;0.40;;;;;;;18.31;96.16;100589.47;5068632;28;20501;-81
2021/07/20 05:38:24;;;;;;;0.63;0.63;;;;;;;18.34;96.34;100581.22;5053605;28;20444;-81
2021/07/20 05:40:57;;;;;;;2.00;1.30;;;;;;;19.21;92.47;100581.63;5030926;28;20974;-82
2021/07/20 05:43:26;;;;;;;1.60;1.57;;;;;;;18.51;94.85;100583.00;5031571;28;20486;-81
2021/07/20 05:45:54;;;;;;;0.50;0.30;;;;;;;19.26;91.55;100583.16;5025840;28;20452;-79
2021/07/20 05:48:24;;;;;;;0.67;0.60;;;;;;;18.80;93.56;100585.88;5024196;28;20502;-79
2021/07/20 05:50:52;;;;;;;0.40;0.30;;;;;;;18.96;92.80;100584.00;5031696;28;21059;-79
2021/07/20 05:53:21;;;;;;;2.00;1.53;;;;;;;18.91;93.19;100587.00;5025692;28;20440;-79
2021/07/20 05:55:51;;;;;;;0.40;0.30;;;;;;;18.72;94.61;100590.81;5028621;28;20511;-78
2021/07/20 05:58:21;;;;;;;1.07;1.07;;;;;;;18.49;95.11;100582.19;5064181;28;20459;-78
2021/07/20 06:00:52;;;;;;;0.50;0.47;;;;;;;18.81;94.36;100595.69;5027519;28;20472;-79
2021/07/20 06:03:21;;;;;;;0.80;0.80;;;;;;;18.86;93.89;100596.28;5025019;28;20510;-79
2021/07/20 06:05:50;;;;;;;0.40;0.20;;;;;;;19.01;93.61;100587.28;5054088;28;20542;-79
2021/07/20 06:08:18;;;;;;;0.40;0.20;;;;;;;18.99;92.44;100599.13;5023688;28;20556;-79
2021/07/20 06:10:47;;;;;;;0.40;0.30;;;;;;;19.20;92.29;100603.28;5036012;28;20501;-79
2021/07/20 06:13:15;;;;;;;0.40;0.30;;;;;;;19.70;91.30;100597.53;5023444;28;20857;-78
2021/07/20 06:15:49;;;;;;;0.40;0.20;;;;;;;19.34;91.71;100599.75;5050120;28;20450;-79
2021/07/20 06:18:16;;;;;;;1.90;1.27;;;;;;;20.16;89.18;100602.78;5058778;28;20502;-79
2021/07/20 06:21:10;;;;;;;0.50;0.30;;;;;;;19.94;87.92;100599.69;5069060;28;20471;-78
2021/07/20 06:23:42;;;;;;;4.97;3.83;;;;;;;19.81;88.55;100603.13;5023963;28;20497;-78
2021/07/20 06:26:10;;;;;;;1.40;1.30;;;;;;;19.84;90.47;100604.78;5032352;28;20473;-78
2021/07/20 06:28:38;;;;;;;1.57;1.57;;;;;;;20.16;88.44;100596.50;5064072;28;20514;-78
2021/07/20 06:31:05;;;;;;;0.60;0.60;;;;;;;20.32;87.20;100597.25;5029659;28;20465;-78
2021/07/20 06:33:34;;;;;;;2.30;2.20;;;;;;;20.27;87.35;100610.16;5064209;28;20582;-78
2021/07/20 06:36:02;;;;;;;0.60;0.50;;;;;;;20.84;86.55;100616.41;5024722;28;20848;-79
2021/07/20 06:38:30;;;;;;;0.63;0.63;;;;;;;20.00;89.42;100608.25;5051509;28;20518;-81
2021/07/20 06:40:57;;;;;;;1.13;1.13;;;;;;;20.24;88.67;100613.94;5048719;28;20590;-81
2021/07/20 06:43:26;;;;;;;1.90;1.90;;;;;;;19.82;89.80;100612.97;5029533;28;20474;-80
2021/07/20 06:45:53;;;;;;;0.40;0.30;;;;;;;20.38;89.21;100615.75;5025575;28;20452;-81
2021/07/20 06:48:22;;;;;;;1.70;1.60;;;;;;;20.64;87.64;100619.50;5023188;28;20492;-81
2021/07/20 06:50:52;;;;;;;0.40;0.20;;;;;;;20.78;88.86;100613.22;5027609;28;20468;-78
2021/07/20 06:53:19;;;;;;;0.67;0.67;;;;;;;20.71;88.17;100620.88;5066028;28;20456;-79
2021/07/20 06:55:54;;;;;;;0.40;0.30;;;;;;;20.36;90.24;100612.28;5027340;28;20444;-79
2021/07/20 06:58:23;;;;;;;0.60;0.60;;;;;;;20.56;90.96;100621.84;5022914;28;20964;-79
2021/07/20 07:00:54;;;;;;;0.83;0.77;;;;;;;20.67;89.42;100611.22;5035667;28;20522;-78
2021/07/20 07:03:37;;;;;;;0.70;0.70;;;;;;;20.80;89.79;100620.25;5022539;28;20523;-79
2021/07/20 07:06:05;;;;;;;0.40;0.30;;;;;;;20.71;89.50;100612.75;5034634;28;20455;-78
2021/07/20 07:08:33;;;;;;;8.63;1.00;;;;;;;20.77;89.92;100615.03;5025465;28;20541;-79
2021/07/20 07:11:03;;;;;;;0.40;0.20;;;;;;;21.53;85.91;100618.03;5050269;28;20455;-79
2021/07/20 07:13:30;;;;;;;0.70;0.70;;;;;;;21.86;85.55;100622.06;5057329;28;20488;-79
2021/07/20 07:15:57;;;;;;;0.50;0.47;;;;;;;21.48;86.13;100616.63;5045484;28;20808;-77
2021/07/20 07:18:25;;;;;;;0.50;0.40;;;;;;;21.81;84.40;100618.84;5023395;28;20475;-78
2021/07/20 07:20:54;;;;;;;5.37;2.93;;;;;;;21.56;83.95;100625.94;5020709;28;20978;-78
2021/07/20 07:23:21;;;;;;;0.40;0.30;;;;;;;21.27;85.96;100621.66;5023531;28;21005;-78
2021/07/20 07:25:50;;;;;;;2.40;2.20;;;;;;;21.09;87.29;100628.25;5059161;28;20451;-77
2021/07/20 07:28:18;;;;;;;0.50;0.40;;;;;;;21.44;85.07;100625.91;5055186;28;21004;-77
2021/07/20 07:30:47;;;;;;;1.33;0.90;;;;;;;22.05;83.98;100624.34;5019428;28;20476;-77
2021/07/20 07:33:14;;;;;;;0.40;0.30;;;;;;;22.11;82.61;100623.97;5023631;28;20453;-77
2021/07/20 07:35:41;;;;;;;0.63;0.63;;;;;;;22.39;82.22;100618.28;5049514;28;20462;-77
2021/07/20 07:38:09;;;;;;;4.73;1.17;;;;;;;22.34;80.70;100606.03;5032454;28;21018;-77
2021/07/20 07:40:36;;;;;;;0.97;0.63;;;;;;;22.56;80.77;100618.91;5020357;28;20464;-77
2021/07/20 07:43:05;;;;;;;15.13;1.17;;;;;;;22.39;81.63;100617.41;5022093;28;20455;-77
2021/07/20 07:45:33;;;;;;;3.70;1.27;;;;;;;22.63;79.63;100612.94;5062941;28;20481;-77
2021/07/20 07:48:01;;;;;;;0.63;0.63;;;;;;;22.21;81.94;100622.34;5021259;28;20461;-77
2021/07/20 07:50:28;;;;;;;2.60;0.93;;;;;;;22.61;80.08;100619.41;5063365;28;20479;-78
2021/07/20 07:52:56;;;;;;;1.17;1.03;;;;;;;22.17;81.02;100623.50;5021874;28;20500;-78
2021/07/20 07:55:24;;;;;;;2.83;2.00;;;;;;;22.71;78.76;100624.06;5026049;28;20461;-78
2021/07/20 07:57:51;;;;;;;7.83;4.33;;;;;;;22.28;80.30;100620.03;5026005;28;20418;-78
2021/07/20 08:00:18;;;;;;;2.33;1.40;;;;;;;22.27;80.61;100618.31;5018997;28;20514;-78
2021/07/20 08:02:51;;;;;;;1.40;1.40;;;;;;;22.05;80.81;100618.94;5021321;28;20507;-77
2021/07/20 08:05:23;;;;;;;0.40;0.20;;;;;;;22.07;81.32;100623.31;5051609;28;20463;-77
2021/07/20 08:07:51;;;;;;;0.73;0.73;;;;;;;22.66;80.23;100619.97;5020326;28;20456;-77
2021/07/20 08:10:19;;;;;;;0.40;0.30;;;;;;;22.06;81.12;100618.84;5024169;28;21067;-78
2021/07/20 08:12:47;;;;;;;0.40;0.20;;;;;;;22.91;78.26;100617.19;5025703;28;20440;-78
2021/07/20 08:15:17;;;;;;;1.27;1.17;;;;;;;22.95;77.82;100620.53;5032650;28;20450;-78
2021/07/20 08:17:46;;;;;;;0.40;0.20;;;;;;;22.23;78.85;100620.38;5021739;28;20456;-78
2021/07/20 08:20:16;;;;;;;2.50;0.97;;;;;;;22.58;77.10;100622.34;5032926;28;20438;-77
2021/07/20 08:22:43;;;;;;;0.40;0.20;;;;;;;22.97;76.30;100613.16;5028038;28;20831;-77
2021/07/20 08:25:15;;;;;;;0.73;0.73;;;;;;;22.74;75.21;100618.41;5056300;28;20440;-77
2021/07/20 08:27:47;;;;;;;0.40;0.20;;;;;;;22.72;75.15;100617.66;5020087;28;20422;-78
2021/07/20 08:30:15;;;;;;;4.83;2.03;;;;;;;23.20;75.77;100616.84;5032954;28;20466;-78
2021/07/20 08:32:51;;;;;;;0.40;0.20;;;;;;;23.16;73.49;100616.19;5025584;28;20469;-78
2021/07/20 08:35:26;;;;;;;0.40;0.30;;;;;;;22.53;75.91;100620.00;5031283;28;20426;-78
2021/07/20 08:38:10;;;;;;;0.63;0.53;;;;;;;22.84;75.96;100613.19;5027196;28;20423;-78
2021/07/20 08:40:49;;;;;;;0.67;0.67;;;;;;;23.31;73.87;100623.19;5067245;28;20491;-78
2021/07/20 08:43:45;;;;;;;0.60;0.60;;;;;;;23.00;73.44;100626.47;5023010;28;20456;-78
2021/07/20 08:46:43;;;;;;;0.50;0.40;;;;;;;23.85;71.36;100622.66;5040230;28;20814;-78
2021/07/20 08:49:25;;;;;;;2.73;2.63;;;;;;;24.06;69.09;100627.34;5017372;28;20506;-78
2021/07/20 08:52:02;;;;;;;0.50;0.47;;;;;;;23.59;70.67;100623.81;5029583;28;20439;-78
2021/07/20 08:54:54;;;;;;;4.87;1.50;;;;;;;23.37;71.22;100624.56;5029536;28;20449;-78
2021/07/20 08:57:44;;;;;;;0.50;0.30;;;;;;;22.65;72.03;100621.81;5027197;28;20414;-78
2021/07/20 09:00:17;;;;;;;0.40;0.30;;;;;;;23.31;69.96;100630.47;5033602;28;20443;-78
2021/07/20 09:02:56;;;;;;;0.40;0.37;;;;;;;23.02;72.99;100638.94;5064590;28;20953;-78
2021/07/20 09:05:26;;;;;;;0.73;0.73;;;;;;;23.18;72.00;100622.41;5026868;28;20472;-78
2021/07/20 09:08:00;;;;;;;0.87;0.83;;;;;;;22.68;73.79;100632.41;5024875;28;20444;-78
2021/07/20 09:10:35;;;;;;;0.70;0.70;;;;;;;22.49;74.47;100628.47;5028504;28;20483;-78
2021/07/20 09:13:04;;;;;;;2.37;2.27;;;;;;;22.51;75.11;100638.22;5068229;28;20968;-78
2021/07/20 09:15:33;;;;;;;0.50;0.50;;;;;;;22.18;73.65;100628.81;5050604;28;20952;-78
2021/07/20 09:18:09;;;;;;;0.90;0.90;;;;;;;22.53;72.48;100644.38;5024296;28;20444;-78
2021/07/20 09:20:39;;;;;;;1.40;1.40;;;;;;;22.23;72.96;100638.47;5023637;28;20526;-78
2021/07/20 09:23:40;;;;;;;1.10;0.97;;;;;;;21.97;72.27;100630.31;5030707;28;20439;-78
2021/07/20 09:26:21;;;;;;;2.67;0.87;;;;;;;22.64;70.23;100628.22;5029886;28;20475;-78
2021/07/20 09:28:54;;;;;;;0.57;0.57;;;;;;;23.22;69.56;100633.88;5062100;28;20461;-78
2021/07/20 09:31:47;;;;;;;0.50;0.50;;;;;;;23.67;65.19;100634.94;5024231;28;20526;-78
2021/07/20 09:34:45;;;;;;;0.40;0.20;;;;;;;22.96;67.69;100633.13;5022936;28;20807;-78
2021/07/20 09:37:20;;;;;;;0.80;0.80;;;;;;;23.98;63.36;100637.94;5066311;28;20503;-78
2021/07/20 09:39:55;;;;;;;1.37;1.33;;;;;;;23.87;63.14;100627.97;5060135;28;20885;-78
2021/07/20 09:42:28;;;;;;;0.40;0.20;;;;;;;23.96;65.15;100631.78;5023007;28;20434;-78
2021/07/20 09:45:07;;;;;;;0.50;0.47;;;;;;;23.85;63.45;100629.94;5023583;28;20448;-78
2021/07/20 09:47:54;;;;;;;1.50;1.40;;;;;;;23.67;61.99;100634.94;5028279;28;20518;-78
2021/07/20 09:50:25;;;;;;;1.33;0.83;;;;;;;23.89;61.14;100628.69;5027710;28;20537;-78
2021/07/20 09:53:13;;;;;;;0.60;0.60;;;;;;;24.01;64.37;100624.16;5022149;28;20431;-78
2021/07/20 09:55:54;;;;;;;2.40;2.30;;;;;;;24.42;60.90;100626.31;5016351;28;20848;-78
2021/07/20 09:58:41;;;;;;;1.70;1.70;;;;;;;23.67;59.94;100624.06;5029937;28;20423;-78
2021/07/20 10:01:35;;;;;;;0.50;0.40;;;;;;;23.76;57.91;100620.66;5029365;28;20485;-78
2021/07/20 10:04:15;;;;;;;0.73;0.73;;;;;;;24.70;57.52;100619.47;5026195;28;20431;-78
2021/07/20 10:06:52;;;;;;;3.70;1.03;;;;;;;24.04;56.83;100624.75;5022474;28;20414;-78
2021/07/20 10:09:21;;;;;;;0.40;0.30;;;;;;;25.29;55.01;100616.34;5020969;28;20477;-78
2021/07/20 10:11:53;;;;;;;0.50;0.50;;;;;;;25.00;54.09;100607.91;5027704;28;21085;-78
2021/07/20 10:14:48;;;;;;;1.63;1.53;;;;;;;24.69;58.23;100613.16;5033148;28;20958;-78
2021/07/20 10:17:35;;;;;;;0.57;0.50;;;;;;;25.25;57.27;100606.72;5028752;28;20457;-78
2021/07/20 10:20:28;;;;;;;0.70;0.70;;;;;;;25.42;55.47;100603.44;5057119;28;20452;-78
2021/07/20 10:23:01;;;;;;;2.17;2.07;;;;;;;25.32;56.29;100599.75;5005456;28;20439;-78
2021/07/20 10:25:35;;;;;;;1.13;1.13;;;;;;;25.01;55.57;100607.81;5029152;28;20448;-78
2021/07/20 10:28:10;;;;;;;0.60;0.60;;;;;;;24.15;58.99;100597.63;5022896;28;20900;-78
2021/07/20 10:30:40;;;;;;;1.33;1.33;;;;;;;24.47;59.68;100586.88;5047486;28;20492;-78
2021/07/20 10:33:29;;;;;;;0.60;0.60;;;;;;;24.98;56.17;100593.56;5057703;28;20498;-78
2021/07/20 10:36:07;;;;;;;0.73;0.73;;;;;;;24.13;57.18;100591.44;5029171;28;20568;-78
2021/07/20 10:38:44;;;;;;;1.13;1.13;;;;;;;24.09;57.85;100592.66;5027840;28;20435;-78
2021/07/20 10:41:16;;;;;;;0.50;0.40;;;;;;;24.85;56.64;100595.59;5056837;28;20488;-78
2021/07/20 10:43:53;;;;;;;2.30;1.37;;;;;;;24.89;56.55;100584.31;5049790;28;20418;-78
2021/07/20 10:46:21;;;;;;;1.83;0.53;;;;;;;25.61;54.15;100586.34;5066940;28;20407;-78
2021/07/20 10:48:54;;;;;;;0.40;0.20;;;;;;;24.79;56.40;100591.50;5021204;28;20554;-78
2021/07/20 10:51:25;;;;;;;66.67;2.33;;;;;;;25.04;55.80;100585.78;5033474;28;21001;-78
2021/07/20 10:54:04;;;;;;;6.33;1.07;;;;;;;25.19;55.80;100589.03;5021489;28;20430;-78
2021/07/20 10:56:43;;;;;;;1.50;1.50;;;;;;;25.46;55.21;100584.97;5021443;28;20798;-78
2021/07/20 10:59:28;;;;;;;0.93;0.93;;;;;;;25.06;51.68;100582.91;5034363;28;20422;-78
2021/07/20 11:02:07;;;;;;;0.77;0.77;;;;;;;25.37;52.98;100573.88;5027217;28;20457;-78
2021/07/20 11:04:57;;;;;;;0.80;0.43;;;;;;;25.60;50.23;100580.06;5026675;28;20542;-78
2021/07/20 11:07:30;;;;;;;0.60;0.50;;;;;;;25.93;49.18;100581.72;5025365;28;20919;-78
2021/07/20 11:10:05;;;;;;;0.50;0.30;;;;;;;26.30;48.44;100575.72;5019839;28;20528;-78
2021/07/20 11:12:34;;;;;;;1.13;1.13;;;;;;;25.45;49.58;100573.22;5049666;28;20447;-78
2021/07/20 11:15:03;;;;;;;0.40;0.30;;;;;;;25.18;49.89;100575.56;5042319;28;20833;-78
2021/07/20 11:17:34;;;;;;;0.70;0.70;;;;;;;25.51;50.05;100561.81;5038015;28;20423;-78
2021/07/20 11:20:06;;;;;;;0.40;0.30;;;;;;;25.74;49.25;100558.94;5023333;28;21026;-78
2021/07/20 11:22:34;;;;;;;2.47;2.00;;;;;;;25.73;49.85;100558.09;5029869;28;20431;-78
2021/07/20 11:25:02;;;;;;;1.53;1.43;;;;;;;25.94;49.86;100563.53;5023474;28;20509;-78
2021/07/20 11:27:29;;;;;;;0.80;0.80;;;;;;;25.96;48.60;100564.25;5020148;28;20529;-78
2021/07/20 11:29:57;;;;;;;0.40;0.30;;;;;;;25.37;48.19;100564.88;5022589;28;20478;-78
2021/07/20 11:32:29;;;;;;;0.60;0.40;;;;;;;25.80;49.05;100561.16;5064088;28;20824;-78
2021/07/20 11:35:11;;;;;;;3.43;2.23;;;;;;;25.31;49.51;100565.38;5021427;28;20415;-78
2021/07/20 11:37:43;;;;;;;1.23;1.07;;;;;;;25.40;50.24;100568.19;5014166;28;20483;-78
2021/07/20 11:40:19;;;;;;;0.67;0.67;;;;;;;25.35;51.29;100567.69;5026221;28;20434;-78
2021/07/20 11:43:03;;;;;;;0.57;0.50;;;;;;;25.20;53.99;100563.56;5021658;28;20447;-78